Time;durP1;ratioP1;P1;durP2;ratioP2;P2;SDS_P1;SDS_P2;PMS_P1;PMS_P2;Temp;Humidity;BMP_temperature;BMP_pressure;BME280_temperature;BME280_humidity;BME280_pressure;Samples;Min_cycle;Max_cycle;Signal;HPM_P1;HPM_P2
2023/05/28 00:00:06;;;;;;;12.30;4.33;;;;;;;11.00;100.00;102513.78;5063458;28;20215;-66
2023/05/28 00:02:32;;;;;;;8.00;4.70;;;;;;;10.50;100.00;102431.34;5063169;28;20190;-66
2023/05/28 00:04:58;;;;;;;10.70;3.90;;;;;;;11.09;100.00;102546.91;5043184;28;20801;-66
2023/05/28 00:07:24;;;;;;;12.20;5.40;;;;;;;10.66;100.00;102461.94;5059217;28;20507;-66
2023/05/28 00:09:50;;;;;;;11.87;4.77;;;;;;;10.71;100.00;102446.22;5060563;28;20199;-65
2023/05/28 00:12:15;;;;;;;9.90;4.53;;;;;;;11.40;100.00;102524.84;5040011;28;20203;-65
2023/05/28 00:14:41;;;;;;;16.23;6.70;;;;;;;10.62;100.00;102486.41;5056259;28;20810;-66
2023/05/28 00:17:06;;;;;;;14.93;5.43;;;;;;;10.63;100.00;102552.50;5061836;28;20191;-66
2023/05/28 00:19:32;;;;;;;13.13;5.13;;;;;;;10.48;100.00;102521.03;5047858;28;20179;-65
2023/05/28 00:21:58;;;;;;;11.40;4.77;;;;;;;10.33;100.00;102481.38;5064355;28;20795;-66
2023/05/28 00:24:23;;;;;;;14.90;4.80;;;;;;;11.27;100.00;102553.00;5059055;28;20256;-66
2023/05/28 00:26:49;;;;;;;12.30;5.10;;;;;;;11.34;100.00;102558.59;5039402;28;20187;-65
2023/05/28 00:29:14;;;;;;;11.07;5.17;;;;;;;11.40;100.00;102536.47;5059601;28;20184;-66
2023/05/28 00:31:40;;;;;;;11.10;4.80;;;;;;;11.32;100.00;102514.94;5058892;28;20219;-66
2023/05/28 00:34:05;;;;;;;10.33;4.80;;;;;;;11.53;100.00;102530.59;5062138;28;20672;-66
2023/05/28 00:36:31;;;;;;;10.53;4.83;;;;;;;11.62;100.00;102555.66;5060241;28;20175;-65
2023/05/28 00:38:56;;;;;;;14.43;5.37;;;;;;;11.67;100.00;102556.84;5060239;28;20191;-66
2023/05/28 00:41:22;;;;;;;12.60;4.17;;;;;;;11.19;100.00;102456.28;5060705;28;20270;-65
2023/05/28 00:43:49;;;;;;;11.20;4.30;;;;;;;11.32;100.00;102490.75;5059743;28;20681;-67
2023/05/28 00:46:18;;;;;;;10.63;5.00;;;;;;;11.92;100.00;102565.00;5043367;28;20979;-66
2023/05/28 00:48:45;;;;;;;10.20;4.93;;;;;;;11.12;100.00;102454.44;5042022;28;20469;-66
2023/05/28 00:51:12;;;;;;;9.27;5.10;;;;;;;11.29;100.00;102510.72;5044055;28;20434;-66
2023/05/28 00:53:38;;;;;;;11.33;5.43;;;;;;;11.88;100.00;102536.75;5059680;28;20465;-66
2023/05/28 00:56:04;;;;;;;8.50;4.90;;;;;;;11.08;100.00;102461.97;5060690;28;20502;-65
2023/05/28 00:58:31;;;;;;;11.80;4.60;;;;;;;11.22;100.00;102471.22;5043351;28;20448;-66
2023/05/28 01:00:56;;;;;;;11.10;5.00;;;;;;;11.19;100.00;102458.97;5042949;28;20809;-66
2023/05/28 01:03:22;;;;;;;12.50;5.50;;;;;;;11.12;100.00;102473.22;5058187;28;20562;-65
2023/05/28 01:05:48;;;;;;;9.80;4.90;;;;;;;11.26;100.00;102510.22;5045766;28;20213;-65
2023/05/28 01:08:14;;;;;;;10.83;4.87;;;;;;;11.25;100.00;102498.63;5056507;28;20187;-66
2023/05/28 01:10:39;;;;;;;12.00;5.30;;;;;;;11.81;100.00;102574.19;5059176;28;20437;-65
2023/05/28 01:13:07;;;;;;;10.50;4.60;;;;;;;11.86;100.00;102577.28;5059924;28;20473;-66
2023/05/28 01:15:33;;;;;;;12.20;4.80;;;;;;;11.61;100.00;102568.25;5055938;28;20319;-65
2023/05/28 01:18:00;;;;;;;10.60;4.70;;;;;;;11.16;100.00;102493.38;5059064;28;20599;-65
2023/05/28 01:20:30;;;;;;;10.40;4.50;;;;;;;11.57;100.00;102574.13;5059549;28;20813;-65
2023/05/28 01:23:00;;;;;;;9.20;4.67;;;;;;;11.68;100.00;102576.50;5040487;28;20903;-66
2023/05/28 01:25:27;;;;;;;11.23;5.50;;;;;;;11.09;100.00;102483.28;5047648;28;20461;-65
2023/05/28 01:27:53;;;;;;;13.00;4.80;;;;;;;11.58;100.00;102551.63;5058624;28;20484;-65
2023/05/28 01:30:18;;;;;;;12.30;4.77;;;;;;;11.75;100.00;102550.66;5041763;28;20441;-66
2023/05/28 01:32:44;;;;;;;10.20;4.00;;;;;;;11.25;100.00;102457.47;5059945;28;20853;-65
2023/05/28 01:35:10;;;;;;;14.37;5.50;;;;;;;11.29;100.00;102480.34;5042786;28;20545;-65
2023/05/28 01:37:39;;;;;;;12.67;5.30;;;;;;;11.24;100.00;102488.88;5059287;28;20200;-66
2023/05/28 01:40:07;;;;;;;14.10;4.90;;;;;;;11.35;100.00;102479.69;5043059;28;20882;-65
2023/05/28 01:42:34;;;;;;;10.40;4.67;;;;;;;11.18;100.00;102488.69;5057843;28;20523;-66
2023/05/28 01:45:03;;;;;;;11.90;5.00;;;;;;;11.00;100.00;102454.72;5060507;28;20454;-65
2023/05/28 01:47:29;;;;;;;10.67;5.30;;;;;;;10.76;100.00;102436.69;5056989;28;20519;-65
2023/05/28 01:49:55;;;;;;;7.50;4.43;;;;;;;10.46;100.00;102413.03;5042630;28;20449;-65
2023/05/28 01:52:20;;;;;;;12.90;4.77;;;;;;;11.23;100.00;102515.91;5058626;28;20497;-66
2023/05/28 01:54:46;;;;;;;13.67;4.40;;;;;;;11.37;100.00;102520.66;5055530;28;20652;-65
2023/05/28 01:57:11;;;;;;;11.70;5.73;;;;;;;11.00;100.00;102448.53;5058150;28;20661;-65
2023/05/28 01:59:37;;;;;;;14.63;5.50;;;;;;;10.57;100.00;102408.25;5060355;28;20280;-65
2023/05/28 02:02:03;;;;;;;9.77;4.43;;;;;;;11.29;100.00;102513.41;5040921;28;20241;-65
2023/05/28 02:04:29;;;;;;;11.57;4.87;;;;;;;11.11;100.00;102475.06;5038411;28;20207;-65
2023/05/28 02:06:55;;;;;;;9.07;3.83;;;;;;;11.64;100.00;102564.41;5043809;28;20471;-65
2023/05/28 02:09:21;;;;;;;12.43;5.10;;;;;;;11.46;100.00;102549.25;5053163;28;20672;-65
2023/05/28 02:11:46;;;;;;;10.73;4.90;;;;;;;11.65;100.00;102603.72;5053141;28;20465;-65
2023/05/28 02:14:14;;;;;;;9.13;4.30;;;;;;;11.67;100.00;102625.91;5033014;28;20215;-65
2023/05/28 02:16:41;;;;;;;8.77;4.20;;;;;;;11.18;100.00;102512.88;5035155;28;20187;-65
2023/05/28 02:19:07;;;;;;;10.10;5.20;;;;;;;11.25;100.00;102516.56;5054092;28;21220;-65
2023/05/28 02:21:32;;;;;;;10.13;4.47;;;;;;;11.83;100.00;102601.78;5041919;28;20449;-66
2023/05/28 02:23:58;;;;;;;11.87;4.67;;;;;;;11.66;100.00;102583.91;5058034;28;20306;-65
2023/05/28 02:26:25;;;;;;;12.13;4.83;;;;;;;11.14;100.00;102506.97;5040087;28;20734;-66
2023/05/28 02:28:50;;;;;;;8.93;3.80;;;;;;;11.53;100.00;102595.09;5047399;28;20183;-65
2023/05/28 02:31:15;;;;;;;12.60;4.43;;;;;;;11.73;100.00;102614.50;5058498;28;21080;-65
2023/05/28 02:33:41;;;;;;;10.63;4.70;;;;;;;11.20;100.00;102508.19;5056454;28;20215;-65
2023/05/28 02:36:08;;;;;;;11.50;4.10;;;;;;;11.75;100.00;102607.13;5054876;28;20611;-65
2023/05/28 02:38:34;;;;;;;10.00;4.93;;;;;;;11.11;100.00;102518.03;5041988;28;20191;-65
2023/05/28 02:41:00;;;;;;;9.33;4.03;;;;;;;11.83;100.00;102601.78;5044054;28;20460;-65
2023/05/28 02:43:25;;;;;;;7.50;4.57;;;;;;;11.53;100.00;102539.50;5040162;28;20453;-65
2023/05/28 02:45:51;;;;;;;12.43;4.00;;;;;;;11.73;100.00;102591.13;5058484;28;20533;-66
2023/05/28 02:48:16;;;;;;;13.13;5.10;;;;;;;11.35;100.00;102501.16;5058234;28;20187;-65
2023/05/28 02:50:42;;;;;;;11.90;4.50;;;;;;;11.85;100.00;102602.47;5056258;28;20195;-65
2023/05/28 02:53:07;;;;;;;11.57;4.30;;;;;;;11.51;100.00;102532.59;5055694;28;20218;-66
2023/05/28 02:55:32;;;;;;;7.90;3.90;;;;;;;11.52;100.00;102494.84;5056584;28;20191;-66
2023/05/28 02:57:58;;;;;;;11.37;4.47;;;;;;;11.83;100.00;102582.94;5056515;28;20190;-65
2023/05/28 03:00:23;;;;;;;11.30;5.03;;;;;;;11.25;100.00;102500.44;5057278;28;20183;-67
2023/05/28 03:02:49;;;;;;;11.93;4.90;;;;;;;11.36;100.00;102518.13;5061551;28;20202;-67
2023/05/28 03:05:14;;;;;;;7.50;4.10;;;;;;;11.23;100.00;102481.00;5061424;28;20195;-67
2023/05/28 03:07:40;;;;;;;10.33;4.80;;;;;;;11.67;100.00;102524.59;5060107;28;20249;-67
2023/05/28 03:10:06;;;;;;;13.57;4.90;;;;;;;11.78;100.00;102571.84;5043984;28;20179;-67
2023/05/28 03:12:32;;;;;;;9.07;4.70;;;;;;;11.70;100.00;102548.47;5049103;28;20299;-67
2023/05/28 03:14:57;;;;;;;8.80;4.13;;;;;;;11.65;100.00;102558.84;5057535;28;20440;-67
2023/05/28 03:17:22;;;;;;;9.97;4.67;;;;;;;11.69;100.00;102570.13;5060582;28;20242;-67
2023/05/28 03:19:48;;;;;;;8.30;4.50;;;;;;;11.26;100.00;102515.59;5043604;28;20191;-67
2023/05/28 03:22:13;;;;;;;19.20;5.90;;;;;;;11.60;100.00;102507.47;5046292;28;20186;-67
2023/05/28 03:24:39;;;;;;;7.43;3.80;;;;;;;11.43;100.00;102514.63;5059075;28;20222;-67
2023/05/28 03:27:07;;;;;;;11.40;5.20;;;;;;;11.09;100.00;102482.44;5044615;28;20560;-67
2023/05/28 03:29:33;;;;;;;9.53;4.40;;;;;;;11.43;100.00;102530.75;5058223;28;20281;-67
2023/05/28 03:31:58;;;;;;;10.73;4.67;;;;;;;11.16;100.00;102483.47;5061248;28;20457;-67
2023/05/28 03:34:24;;;;;;;9.70;4.20;;;;;;;11.83;100.00;102572.19;5045335;28;20677;-67
2023/05/28 03:36:50;;;;;;;13.83;4.60;;;;;;;11.67;100.00;102572.13;5045610;28;20187;-67
2023/05/28 03:39:16;;;;;;;7.80;3.57;;;;;;;11.56;100.00;102583.19;5041013;28;20616;-68
2023/05/28 03:41:41;;;;;;;7.77;4.37;;;;;;;11.31;100.00;102514.09;5061666;28;20433;-67
2023/05/28 03:44:07;;;;;;;8.10;3.77;;;;;;;11.65;100.00;102596.47;5060952;28;20598;-68
2023/05/28 03:46:33;;;;;;;7.47;4.50;;;;;;;11.61;100.00;102602.38;5043448;28;20298;-67
2023/05/28 03:48:58;;;;;;;11.60;5.00;;;;;;;11.45;100.00;102603.13;5059356;28;20452;-67
2023/05/28 03:51:24;;;;;;;8.30;5.00;;;;;;;11.69;100.00;102619.34;5041911;28;20648;-67
2023/05/28 03:53:50;;;;;;;11.90;4.50;;;;;;;11.55;100.00;102609.22;5061753;28;20202;-67
2023/05/28 03:56:19;;;;;;;10.33;4.60;;;;;;;11.71;100.00;102614.63;5059593;28;20865;-67
2023/05/28 03:58:45;;;;;;;12.97;4.80;;;;;;;10.84;100.00;102493.06;5042430;28;20198;-67
2023/05/28 04:01:12;;;;;;;8.40;4.30;;;;;;;11.68;100.00;102622.19;5049888;28;20429;-67
2023/05/28 04:03:37;;;;;;;10.20;4.40;;;;;;;11.37;100.00;102569.03;5043750;28;20467;-67
2023/05/28 04:06:03;;;;;;;8.53;4.80;;;;;;;11.81;100.00;102611.84;5042050;28;20444;-67
2023/05/28 04:08:29;;;;;;;13.33;5.33;;;;;;;11.06;100.00;102488.97;5059415;28;20197;-67
2023/05/28 04:10:54;;;;;;;8.53;4.87;;;;;;;11.46;100.00;102553.78;5056720;28;20195;-67
2023/05/28 04:13:20;;;;;;;8.67;4.80;;;;;;;11.82;100.00;102613.50;5040670;28;21038;-67
2023/05/28 04:15:45;;;;;;;11.90;4.57;;;;;;;11.14;100.00;102511.47;5060718;28;20190;-67
2023/05/28 04:18:11;;;;;;;10.30;4.50;;;;;;;11.68;100.00;102617.66;5041736;28;20187;-66
2023/05/28 04:20:36;;;;;;;11.43;5.07;;;;;;;11.80;100.00;102618.19;5042998;28;20191;-67
2023/05/28 04:23:03;;;;;;;7.63;3.87;;;;;;;11.84;100.00;102627.63;5060575;28;20759;-67
2023/05/28 04:25:28;;;;;;;11.20;4.40;;;;;;;11.23;100.00;102548.97;5042608;28;20195;-67
2023/05/28 04:27:54;;;;;;;11.23;4.50;;;;;;;11.30;100.00;102543.78;5044601;28;20448;-67
2023/05/28 04:30:22;;;;;;;10.40;4.33;;;;;;;11.46;100.00;102586.84;5060853;28;20183;-66
2023/05/28 04:32:51;;;;;;;11.73;4.40;;;;;;;11.79;100.00;102613.84;5044865;28;20480;-67
2023/05/28 04:35:16;;;;;;;10.57;5.20;;;;;;;11.48;100.00;102533.78;5044792;28;20520;-67
2023/05/28 04:37:42;;;;;;;9.20;4.73;;;;;;;11.90;100.00;102605.50;5060685;28;20528;-67
2023/05/28 04:40:11;;;;;;;11.10;4.60;;;;;;;11.89;100.00;102619.97;5058571;28;20190;-67
2023/05/28 04:42:37;;;;;;;12.00;4.17;;;;;;;11.97;100.00;102627.19;5046359;28;20199;-67
2023/05/28 04:45:03;;;;;;;9.33;3.90;;;;;;;11.45;100.00;102530.56;5041727;28;20524;-66
2023/05/28 04:47:29;;;;;;;13.83;4.53;;;;;;;11.93;100.00;102583.66;5058546;28;20496;-67
2023/05/28 04:49:57;;;;;;;9.80;4.80;;;;;;;12.12;100.00;102630.06;5057140;28;20442;-67
2023/05/28 04:52:23;;;;;;;8.00;4.73;;;;;;;11.94;100.00;102617.59;5044729;28;20297;-67
2023/05/28 04:54:48;;;;;;;13.80;5.27;;;;;;;12.02;100.00;102641.00;5058802;28;20537;-67
2023/05/28 04:57:13;;;;;;;10.00;4.80;;;;;;;12.10;100.00;102664.38;5043831;28;20187;-67
2023/05/28 04:59:39;;;;;;;9.27;4.57;;;;;;;12.07;100.00;102657.47;5055832;28;20183;-67
2023/05/28 05:02:05;;;;;;;12.03;4.77;;;;;;;12.12;100.00;102675.81;5038084;28;20567;-67
2023/05/28 05:04:30;;;;;;;10.57;4.50;;;;;;;11.79;100.00;102623.75;5061879;28;20229;-67
2023/05/28 05:06:56;;;;;;;8.87;3.97;;;;;;;11.96;100.00;102620.97;5043568;28;20187;-67
2023/05/28 05:09:23;;;;;;;12.33;4.10;;;;;;;12.02;100.00;102643.69;5059236;28;20244;-67
2023/05/28 05:11:48;;;;;;;7.43;4.77;;;;;;;12.22;100.00;102689.97;5042066;28;20268;-67
2023/05/28 05:14:14;;;;;;;10.57;4.80;;;;;;;11.69;100.00;102611.28;5056697;28;20464;-66
2023/05/28 05:16:40;;;;;;;10.87;4.43;;;;;;;11.86;100.00;102612.22;5041986;28;20557;-67
2023/05/28 05:19:06;;;;;;;11.50;4.90;;;;;;;11.70;100.00;102601.38;5040795;28;20209;-67
2023/05/28 05:21:31;;;;;;;10.83;4.90;;;;;;;12.10;100.00;102702.88;5057044;28;20194;-67
2023/05/28 05:23:57;;;;;;;8.53;4.60;;;;;;;11.66;100.00;102629.59;5042694;28;20590;-67
2023/05/28 05:26:22;;;;;;;12.70;3.97;;;;;;;12.20;100.00;102708.09;5043022;28;20191;-67
2023/05/28 05:28:48;;;;;;;7.13;4.10;;;;;;;12.23;100.00;102694.34;5059377;28;20187;-67
2023/05/28 05:31:13;;;;;;;13.07;4.80;;;;;;;12.31;100.00;102682.75;5061132;28;20740;-67
2023/05/28 05:33:40;;;;;;;9.60;5.03;;;;;;;12.48;100.00;102697.91;5058856;28;20600;-67
2023/05/28 05:36:07;;;;;;;9.40;4.30;;;;;;;12.11;100.00;102631.09;5041593;28;20209;-67
2023/05/28 05:38:33;;;;;;;9.97;4.70;;;;;;;11.86;100.00;102620.28;5061049;28;20500;-67
2023/05/28 05:40:58;;;;;;;9.27;4.40;;;;;;;12.49;100.00;102699.59;5058975;28;20979;-67
2023/05/28 05:43:24;;;;;;;10.63;4.30;;;;;;;12.55;100.00;102731.22;5056339;28;20203;-67
2023/05/28 05:45:49;;;;;;;8.47;4.23;;;;;;;12.53;100.00;102744.03;5042661;28;20191;-67
2023/05/28 05:48:15;;;;;;;8.90;4.37;;;;;;;12.06;100.00;102649.56;5041509;28;20191;-67
2023/05/28 05:50:54;;;;;;;10.60;4.47;;;;;;;12.02;100.00;102638.31;5060781;28;20178;-67
2023/05/28 05:53:20;;;;;;;9.10;4.27;;;;;;;12.40;100.00;102711.34;5049802;28;21135;-67
2023/05/28 05:55:45;;;;;;;8.57;4.17;;;;;;;12.39;100.00;102718.59;5059741;28;20847;-67
2023/05/28 05:58:11;;;;;;;9.97;4.90;;;;;;;12.74;100.00;102764.25;5061251;28;20428;-67
2023/05/28 06:00:37;;;;;;;11.97;4.60;;;;;;;12.72;100.00;102759.03;5060582;28;20187;-67
2023/05/28 06:03:03;;;;;;;8.80;4.50;;;;;;;12.55;100.00;102725.84;5045038;28;20234;-67
2023/05/28 06:05:28;;;;;;;8.07;4.57;;;;;;;12.77;100.00;102754.00;5040792;28;20462;-67
2023/05/28 06:07:55;;;;;;;10.83;4.73;;;;;;;12.84;100.00;102759.53;5060567;28;20948;-67
2023/05/28 06:10:21;;;;;;;13.90;3.97;;;;;;;12.44;100.00;102694.72;5042822;28;20602;-67
2023/05/28 06:12:46;;;;;;;9.07;4.43;;;;;;;12.51;100.00;102697.59;5060654;28;20519;-67
2023/05/28 06:15:11;;;;;;;16.23;5.17;;;;;;;12.46;100.00;102691.00;5060259;28;20210;-67
2023/05/28 06:17:37;;;;;;;9.50;3.90;;;;;;;12.46;100.00;102661.41;5057504;28;20210;-67
2023/05/28 06:20:06;;;;;;;8.60;3.90;;;;;;;12.55;100.00;102650.47;5058500;28;20246;-67
2023/05/28 06:22:32;;;;;;;8.77;4.13;;;;;;;12.59;100.00;102619.53;5061906;28;20172;-67
2023/05/28 06:24:57;;;;;;;11.13;4.40;;;;;;;13.15;100.00;102675.38;5061264;28;20471;-67
2023/05/28 06:27:23;;;;;;;8.37;4.27;;;;;;;13.29;100.00;102689.00;5044498;28;20650;-67
2023/05/28 06:29:48;;;;;;;10.40;4.83;;;;;;;13.34;100.00;102683.94;5060340;28;20193;-67
2023/05/28 06:32:14;;;;;;;9.57;4.30;;;;;;;13.03;100.00;102618.31;5043653;28;20700;-67
2023/05/28 06:34:40;;;;;;;9.03;4.80;;;;;;;13.23;100.00;102651.09;5040697;28;20207;-67
2023/05/28 06:37:06;;;;;;;5.83;3.57;;;;;;;13.37;100.00;102634.25;5045088;28;20183;-67
2023/05/28 06:39:31;;;;;;;7.10;3.80;;;;;;;13.37;100.00;102615.38;5042985;28;20425;-67
2023/05/28 06:41:57;;;;;;;7.63;4.50;;;;;;;13.39;100.00;102572.91;5060762;28;20183;-67
2023/05/28 06:44:23;;;;;;;7.40;3.60;;;;;;;12.85;100.00;102465.00;5061678;28;20293;-67
2023/05/28 06:46:48;;;;;;;6.47;2.77;;;;;;;13.54;100.00;102562.25;5060240;28;20187;-67
2023/05/28 06:49:14;;;;;;;6.70;3.47;;;;;;;13.03;100.00;102460.22;5059284;28;20191;-67
2023/05/28 06:51:39;;;;;;;5.97;4.07;;;;;;;13.21;100.00;102477.97;5061011;28;20198;-67
2023/05/28 06:54:05;;;;;;;7.40;3.67;;;;;;;13.70;100.00;102545.97;5060188;28;20203;-67
2023/05/28 06:56:30;;;;;;;4.73;2.90;;;;;;;13.28;100.00;102443.97;5059544;28;20176;-68
2023/05/28 06:58:56;;;;;;;6.20;3.50;;;;;;;13.43;100.00;102441.34;5058942;28;20257;-67
2023/05/28 07:01:21;;;;;;;4.33;2.63;;;;;;;13.90;100.00;102502.34;5042545;28;20271;-67
2023/05/28 07:03:47;;;;;;;10.43;3.57;;;;;;;13.65;100.00;102469.31;5059707;28;20205;-68
2023/05/28 07:06:12;;;;;;;7.17;3.20;;;;;;;13.87;100.00;102489.22;5062584;28;20188;-67
2023/05/28 07:08:44;;;;;;;7.00;3.60;;;;;;;13.45;100.00;102417.72;5043083;28;20183;-67
2023/05/28 07:11:11;;;;;;;6.37;3.10;;;;;;;14.00;100.00;102495.69;5060589;28;20198;-67
2023/05/28 07:13:37;;;;;;;7.47;3.10;;;;;;;13.39;100.00;102386.09;5045872;28;20473;-67
2023/05/28 07:16:02;;;;;;;6.03;2.93;;;;;;;13.62;100.00;102405.78;5063869;28;20426;-67
2023/05/28 07:18:28;;;;;;;4.10;2.83;;;;;;;14.10;100.00;102476.53;5063462;28;20440;-68
2023/05/28 07:20:53;;;;;;;6.03;3.00;;;;;;;13.48;100.00;102375.09;5061908;28;20210;-68
2023/05/28 07:23:19;;;;;;;4.20;2.70;;;;;;;14.12;100.00;102446.69;5059795;28;20207;-68
2023/05/28 07:25:44;;;;;;;5.00;2.60;;;;;;;14.01;100.00;102385.91;5058416;28;20207;-68
2023/05/28 07:28:10;;;;;;;5.57;2.87;;;;;;;13.79;100.00;102334.53;5037701;28;20203;-68
2023/05/28 07:30:35;;;;;;;5.40;3.20;;;;;;;14.18;100.00;102386.59;5060996;28;20320;-69
2023/05/28 07:33:00;;;;;;;5.00;2.93;;;;;;;14.18;100.00;102375.81;5060183;28;20217;-67
2023/05/28 07:35:26;;;;;;;7.87;2.97;;;;;;;14.27;100.00;102385.47;5063483;28;20196;-67
2023/05/28 07:37:53;;;;;;;4.47;2.83;;;;;;;14.42;100.00;102382.78;5041491;28;20241;-67
2023/05/28 07:40:19;;;;;;;4.13;2.70;;;;;;;14.41;100.00;102387.34;5041216;28;20733;-68
2023/05/28 07:42:44;;;;;;;7.43;2.70;;;;;;;14.53;100.00;102379.63;5044620;28;20445;-67
2023/05/28 07:45:10;;;;;;;3.50;2.17;;;;;;;14.64;100.00;102370.22;5044820;28;20567;-67
2023/05/28 07:47:36;;;;;;;4.23;2.73;;;;;;;14.15;100.00;102298.75;5063420;28;20522;-68
2023/05/28 07:50:03;;;;;;;3.83;2.60;;;;;;;14.48;100.00;102328.03;5063208;28;20896;-67
2023/05/28 07:52:29;;;;;;;4.67;2.57;;;;;;;14.11;100.00;102246.16;5044820;28;20207;-69
2023/05/28 07:54:58;;;;;;;3.77;2.60;;;;;;;14.85;100.00;102370.28;5046798;28;20440;-69
2023/05/28 07:57:24;;;;;;;3.93;2.60;;;;;;;14.31;100.00;102283.38;5037511;28;20184;-68
2023/05/28 07:59:49;;;;;;;4.03;2.80;;;;;;;14.38;100.00;102301.34;5058174;28;20433;-68
2023/05/28 08:02:15;;;;;;;4.80;3.17;;;;;;;14.17;100.00;102242.72;5059588;28;20528;-69
2023/05/28 08:04:40;;;;;;;3.40;2.70;;;;;;;14.50;100.00;102284.66;5059995;28;20297;-68
2023/05/28 08:07:06;;;;;;;4.80;3.27;;;;;;;15.08;100.00;102359.31;5056197;28;20195;-69
2023/05/28 08:09:32;;;;;;;4.23;2.73;;;;;;;14.48;100.00;102279.44;5040919;28;20184;-69
2023/05/28 08:11:57;;;;;;;3.60;2.43;;;;;;;14.45;100.00;102286.03;5061541;28;20206;-68
2023/05/28 08:14:23;;;;;;;4.23;3.00;;;;;;;14.97;100.00;102326.56;5041618;28;20214;-69
2023/05/28 08:16:48;;;;;;;4.90;2.70;;;;;;;15.28;100.00;102359.50;5037793;28;20804;-68
2023/05/28 08:19:13;;;;;;;4.17;2.90;;;;;;;14.81;100.00;102263.66;5038854;28;20191;-69
2023/05/28 08:21:39;;;;;;;3.23;2.63;;;;;;;15.19;100.00;102330.94;5038008;28;20188;-68
2023/05/28 08:24:06;;;;;;;5.00;3.03;;;;;;;15.32;100.00;102370.78;5024100;28;20215;-69
2023/05/28 08:26:31;;;;;;;4.77;3.23;;;;;;;14.86;100.00;102280.09;5036091;28;20188;-69
2023/05/28 08:28:56;;;;;;;4.10;2.60;;;;;;;14.98;100.00;102279.59;5039733;28;20468;-68
2023/05/28 08:31:22;;;;;;;4.30;3.17;;;;;;;15.54;100.00;102349.97;5022491;28;20184;-69
2023/05/28 08:33:47;;;;;;;6.87;3.20;;;;;;;15.53;100.00;102343.72;5041038;28;20273;-68
2023/05/28 08:36:13;;;;;;;3.83;2.87;;;;;;;15.32;100.00;102319.41;5038827;28;20784;-70
2023/05/28 08:38:38;;;;;;;6.00;3.20;;;;;;;15.33;100.00;102345.41;5038105;28;20183;-68
2023/05/28 08:41:05;;;;;;;4.70;3.17;;;;;;;15.42;100.00;102373.13;5038375;28;20669;-68
2023/05/28 08:43:30;;;;;;;5.00;3.33;;;;;;;14.77;100.00;102254.22;5013864;28;20315;-68
2023/05/28 08:45:56;;;;;;;5.40;3.67;;;;;;;14.83;100.00;102255.34;5022410;28;20527;-69
2023/05/28 08:48:22;;;;;;;4.90;4.10;;;;;;;14.96;100.00;102243.84;5008377;28;20225;-68
2023/05/28 08:50:51;;;;;;;5.00;3.87;;;;;;;15.51;100.00;102321.47;5009259;28;20473;-69
2023/05/28 08:53:21;;;;;;;4.30;3.30;;;;;;;15.59;100.00;102345.66;5002549;28;20478;-68
2023/05/28 08:55:47;;;;;;;5.80;4.07;;;;;;;15.60;100.00;102350.03;5017886;28;20747;-67
2023/05/28 08:58:13;;;;;;;5.80;4.40;;;;;;;15.70;100.00;102352.41;5007279;28;20969;-68
2023/05/28 09:00:40;;;;;;;7.50;4.70;;;;;;;15.64;100.00;102326.13;5016151;28;20454;-68
2023/05/28 09:03:07;;;;;;;5.67;4.60;;;;;;;15.62;100.00;102330.06;5012592;28;20838;-68
2023/05/28 09:05:37;;;;;;;6.50;4.80;;;;;;;15.87;100.00;102344.00;5016355;28;20624;-68
2023/05/28 09:08:08;;;;;;;8.27;5.60;;;;;;;15.97;100.00;102347.22;5017317;28;20423;-68
2023/05/28 09:10:34;;;;;;;8.40;5.10;;;;;;;15.89;100.00;102350.91;5002591;28;20522;-68
2023/05/28 09:13:00;;;;;;;5.10;4.50;;;;;;;15.98;100.00;102344.31;5016782;28;20475;-69
2023/05/28 09:15:26;;;;;;;7.10;4.93;;;;;;;16.04;100.00;102353.50;5018257;28;20439;-68
2023/05/28 09:17:52;;;;;;;5.67;4.33;;;;;;;16.18;100.00;102332.78;5017954;28;20466;-68
2023/05/28 09:20:20;;;;;;;6.77;5.20;;;;;;;16.01;100.00;102289.78;5016628;28;20196;-68
2023/05/28 09:22:58;;;;;;;9.63;5.40;;;;;;;16.36;100.00;102322.22;5013777;28;20208;-68
2023/05/28 09:25:24;;;;;;;6.87;5.00;;;;;;;16.54;100.00;102332.50;4999103;28;21241;-68
2023/05/28 09:27:52;;;;;;;5.83;4.47;;;;;;;16.48;100.00;102342.28;5009507;28;20463;-69
2023/05/28 09:30:18;;;;;;;6.00;4.90;;;;;;;16.47;100.00;102331.66;4999290;28;20443;-69
2023/05/28 09:32:43;;;;;;;7.33;4.70;;;;;;;16.56;100.00;102344.00;5015797;28;20568;-69
2023/05/28 09:35:10;;;;;;;8.00;5.10;;;;;;;16.55;100.00;102336.06;5013791;28;20203;-68
2023/05/28 09:37:35;;;;;;;6.57;5.33;;;;;;;16.61;100.00;102340.69;5013211;28;20271;-69
2023/05/28 09:40:08;;;;;;;8.70;6.50;;;;;;;16.06;100.00;102277.53;5017916;28;20465;-70
2023/05/28 09:42:43;;;;;;;7.20;5.23;;;;;;;16.46;100.00;102308.31;5019545;28;20658;-69
2023/05/28 09:45:10;;;;;;;8.20;6.30;;;;;;;16.73;100.00;102345.31;5016421;28;20990;-69
2023/05/28 09:47:45;;;;;;;7.33;5.63;;;;;;;16.20;100.00;102236.78;5018050;28;20490;-69
2023/05/28 09:50:11;;;;;;;9.50;6.50;;;;;;;16.93;100.00;102345.41;5014735;28;20449;-69
2023/05/28 09:52:43;;;;;;;7.27;5.20;;;;;;;16.81;100.00;102336.22;5020369;28;20486;-69
2023/05/28 09:55:13;;;;;;;7.57;5.90;;;;;;;16.68;100.00;102276.50;5002687;28;20443;-70
2023/05/28 09:57:46;;;;;;;8.43;5.90;;;;;;;16.76;100.00;102302.59;5003932;28;20534;-68
2023/05/28 10:00:22;;;;;;;9.10;5.50;;;;;;;16.70;100.00;102247.34;5019100;28;20947;-68
2023/05/28 10:03:12;;;;;;;7.13;5.23;;;;;;;17.08;100.00;102331.66;5018159;28;20481;-67
2023/05/28 10:05:42;;;;;;;6.03;4.70;;;;;;;17.16;100.00;102327.94;5018512;28;20817;-69
2023/05/28 10:08:12;;;;;;;6.97;4.87;;;;;;;16.65;100.00;102257.97;5018136;28;20447;-68
2023/05/28 10:10:40;;;;;;;10.10;5.27;;;;;;;16.53;100.00;102236.06;5018213;28;20486;-68
2023/05/28 10:13:07;;;;;;;6.80;4.33;;;;;;;16.46;100.00;102203.53;5018038;28;20474;-68
2023/05/28 10:15:35;;;;;;;8.00;5.00;;;;;;;16.86;100.00;102271.38;5000331;28;20532;-67
2023/05/28 10:18:01;;;;;;;8.13;4.90;;;;;;;16.77;100.00;102286.16;5000541;28;20443;-68
2023/05/28 10:20:27;;;;;;;5.80;3.90;;;;;;;17.22;100.00;102308.13;5000907;28;20447;-67
2023/05/28 10:22:53;;;;;;;7.63;4.30;;;;;;;17.02;100.00;102231.38;5020506;28;20847;-68
2023/05/28 10:25:19;;;;;;;6.33;4.30;;;;;;;17.34;100.00;102276.63;5020525;28;20192;-69
2023/05/28 10:27:45;;;;;;;5.23;3.80;;;;;;;17.57;100.00;102330.47;5001919;28;20526;-68
2023/05/28 10:30:12;;;;;;;6.00;3.47;;;;;;;17.57;100.00;102321.50;5006817;28;20501;-69
2023/05/28 10:32:42;;;;;;;7.33;4.10;;;;;;;17.64;100.00;102338.59;4999133;28;20496;-69
2023/05/28 10:35:12;;;;;;;4.73;3.23;;;;;;;17.34;100.00;102295.63;5014853;28;20996;-69
2023/05/28 10:37:37;;;;;;;5.00;3.40;;;;;;;17.89;100.00;102330.69;5013267;28;21014;-69
2023/05/28 10:40:06;;;;;;;6.80;3.50;;;;;;;18.05;100.00;102334.81;5002085;28;20451;-68
2023/05/28 10:42:39;;;;;;;6.77;3.50;;;;;;;16.94;100.00;102189.88;5021053;28;20227;-68
2023/05/28 10:45:09;;;;;;;6.70;3.40;;;;;;;17.65;100.00;102329.44;5009037;28;20439;-69
2023/05/28 10:47:35;;;;;;;5.60;3.07;;;;;;;17.95;100.00;102342.56;5024864;28;20423;-68
2023/05/28 10:50:11;;;;;;;6.47;3.20;;;;;;;18.00;100.00;102321.06;5026173;28;20453;-69
2023/05/28 10:52:36;;;;;;;4.90;2.77;;;;;;;18.20;100.00;102337.31;5025042;28;20273;-69
2023/05/28 10:55:10;;;;;;;4.40;2.77;;;;;;;18.28;100.00;102324.31;5023931;28;20917;-68
2023/05/28 10:57:48;;;;;;;4.30;2.63;;;;;;;17.45;100.00;102187.56;5026666;28;20695;-67
2023/05/28 11:00:24;;;;;;;4.83;2.20;;;;;;;18.26;100.00;102326.41;5016892;28;20542;-68
2023/05/28 11:02:53;;;;;;;3.93;2.17;;;;;;;18.52;100.00;102327.38;5024691;28;20948;-68
2023/05/28 11:05:27;;;;;;;5.40;2.80;;;;;;;18.57;100.00;102319.38;5020786;28;20944;-68
2023/05/28 11:07:55;;;;;;;6.13;2.67;;;;;;;18.70;100.00;102337.53;5022532;28;20434;-68
2023/05/28 11:10:21;;;;;;;4.70;2.87;;;;;;;18.28;100.00;102307.16;5020790;28;20451;-70